Time;durP1;ratioP1;P1;durP2;ratioP2;P2;SDS_P1;SDS_P2;PMS_P1;PMS_P2;Temp;Humidity;BMP_temperature;BMP_pressure;BME280_temperature;BME280_humidity;BME280_pressure;Samples;Min_cycle;Max_cycle;Signal;HPM_P1;HPM_P2
2023/06/13 00:00:45;;;;;;;4.35;1.55;;;18.20;77.70;;;;;;4741755;30;20055;-92
2023/06/13 00:03:14;;;;;;;2.72;1.50;;;18.10;78.40;;;;;;4727840;30;20047;-92
2023/06/13 00:05:45;;;;;;;3.45;1.77;;;18.10;78.80;;;;;;4711992;30;20048;-92
2023/06/13 00:08:17;;;;;;;2.70;1.60;;;18.10;79.30;;;;;;4728488;30;20044;-90
2023/06/13 00:10:50;;;;;;;4.43;1.70;;;18.00;80.00;;;;;;4757432;30;20112;-91
2023/06/13 00:13:17;;;;;;;2.60;1.40;;;18.00;80.80;;;;;;4756265;30;20488;-91
2023/06/13 00:15:51;;;;;;;5.05;1.70;;;17.90;81.50;;;;;;4756428;30;20047;-91
2023/06/13 00:18:19;;;;;;;6.10;1.98;;;17.90;82.30;;;;;;4753345;30;20044;-93
2023/06/13 00:20:46;;;;;;;3.15;1.55;;;17.80;83.10;;;;;;4761610;30;20074;-91
2023/06/13 00:23:12;;;;;;;5.40;1.77;;;17.80;83.20;;;;;;4761311;30;20420;-92
2023/06/13 00:25:38;;;;;;;2.88;1.50;;;17.80;83.70;;;;;;4714146;30;20055;-91
2023/06/13 00:28:04;;;;;;;2.33;1.50;;;17.80;84.00;;;;;;4746680;30;20044;-91
2023/06/13 00:30:30;;;;;;;4.22;1.85;;;17.80;84.10;;;;;;4757482;30;20040;-91
2023/06/13 00:32:57;;;;;;;2.72;1.60;;;17.70;85.00;;;;;;4740753;30;20047;-92
2023/06/13 00:35:23;;;;;;;4.03;1.77;;;17.60;85.80;;;;;;4760772;30;20054;-91
2023/06/13 00:37:54;;;;;;;6.05;1.83;;;17.60;86.80;;;;;;4757215;30;20632;-90
2023/06/13 00:40:20;;;;;;;3.85;1.65;;;17.50;88.60;;;;;;4752101;30;20052;-91
2023/06/13 00:42:46;;;;;;;3.25;1.58;;;17.40;89.50;;;;;;4726173;30;20043;-91
2023/06/13 00:45:33;;;;;;;2.90;1.80;;;17.30;90.10;;;;;;4742161;30;20055;-91
2023/06/13 00:48:03;;;;;;;3.92;1.65;;;17.30;91.70;;;;;;4741483;30;20055;-90
2023/06/13 00:50:34;;;;;;;3.55;1.73;;;17.20;92.20;;;;;;4761581;30;20531;-90
2023/06/13 00:53:09;;;;;;;2.97;1.63;;;17.10;92.60;;;;;;4753207;30;20047;-91
2023/06/13 00:55:36;;;;;;;4.60;1.77;;;17.10;93.10;;;;;;4755899;30;20060;-91
2023/06/13 00:58:05;;;;;;;5.68;1.80;;;17.00;93.70;;;;;;4757316;30;20147;-91
2023/06/13 01:00:35;;;;;;;4.30;2.15;;;17.00;94.20;;;;;;4743979;30;20044;-92
2023/06/13 01:03:09;;;;;;;3.88;1.75;;;17.00;94.70;;;;;;4759314;30;20051;-90
2023/06/13 01:05:36;;;;;;;5.97;1.83;;;16.90;95.30;;;;;;4753609;30;20724;-91
2023/06/13 01:08:07;;;;;;;4.60;1.95;;;16.90;95.70;;;;;;4760739;30;20050;-90
2023/06/13 01:10:33;;;;;;;2.75;1.95;;;16.90;96.60;;;;;;4768365;30;20047;-90
2023/06/13 01:13:24;;;;;;;2.95;1.90;;;16.90;97.10;;;;;;4757883;30;20100;-91
2023/06/13 01:16:33;;;;;;;2.92;1.98;;;16.80;98.00;;;;;;4758868;30;20047;-91
2023/06/13 01:19:03;;;;;;;4.18;2.08;;;16.80;98.60;;;;;;4748767;30;20508;-91
2023/06/13 01:21:32;;;;;;;3.42;2.10;;;16.70;98.40;;;;;;4775106;29;20581;-91
2023/06/13 01:24:05;;;;;;;4.63;2.10;;;16.70;98.70;;;;;;4758001;30;20112;-92
2023/06/13 01:27:10;;;;;;;3.55;2.30;;;16.70;98.90;;;;;;4755044;30;20044;-91
2023/06/13 01:29:37;;;;;;;4.20;2.10;;;16.70;99.90;;;;;;4700298;30;20049;-92
2023/06/13 01:32:04;;;;;;;3.65;2.03;;;16.60;99.70;;;;;;4717456;30;20052;-92
2023/06/13 01:34:30;;;;;;;2.65;1.90;;;16.60;99.80;;;;;;4708599;30;20511;-93
2023/06/13 01:36:57;;;;;;;4.05;1.88;;;16.60;99.80;;;;;;4760866;30;20055;-92
2023/06/13 01:39:22;;;;;;;3.53;2.13;;;16.60;99.90;;;;;;4757586;30;20051;-92
2023/06/13 01:41:48;;;;;;;4.70;2.33;;;16.50;99.90;;;;;;4774521;30;20111;-91
2023/06/13 01:44:19;;;;;;;3.00;1.90;;;16.50;99.90;;;;;;4746746;30;20048;-91
2023/06/13 01:46:49;;;;;;;5.53;2.22;;;16.40;99.90;;;;;;4753852;30;20055;-92
2023/06/13 01:49:50;;;;;;;4.35;1.98;;;16.40;99.90;;;;;;4752109;30;20048;-92
2023/06/13 01:52:32;;;;;;;4.75;2.20;;;16.40;99.90;;;;;;4759505;30;20063;-92
2023/06/13 01:55:14;;;;;;;3.63;1.98;;;16.40;99.90;;;;;;4766048;30;20048;-91
2023/06/13 01:57:48;;;;;;;3.90;1.83;;;16.30;99.90;;;;;;4765436;30;20048;-91
2023/06/13 02:00:16;;;;;;;4.72;1.80;;;16.30;99.90;;;;;;4754281;30;20051;-92
2023/06/13 02:02:43;;;;;;;3.63;1.90;;;16.30;99.90;;;;;;4753397;30;20062;-92
2023/06/13 02:05:11;;;;;;;3.92;2.13;;;16.30;99.90;;;;;;4758168;30;20044;-92
2023/06/13 02:07:37;;;;;;;3.50;2.10;;;16.30;99.90;;;;;;4776110;30;20043;-90
2023/06/13 02:10:05;;;;;;;4.13;1.75;;;16.30;99.90;;;;;;4733962;30;20040;-92
2023/06/13 02:12:32;;;;;;;4.55;1.95;;;16.30;99.90;;;;;;4715247;30;20043;-91
2023/06/13 02:14:57;;;;;;;2.60;1.80;;;16.20;99.90;;;;;;4761871;30;20042;-91
2023/06/13 02:17:25;;;;;;;3.00;1.98;;;16.30;99.90;;;;;;4743707;30;20048;-91
2023/06/13 02:19:50;;;;;;;;;;;16.30;99.90;;;;;;4727300;30;20412;-90
2023/06/13 02:22:16;;;;;;;2.35;1.80;;;16.20;99.90;;;;;;4750404;30;19968;-91
2023/06/13 02:24:42;;;;;;;4.63;1.95;;;16.20;99.90;;;;;;4723843;30;20125;-92
2023/06/13 02:27:08;;;;;;;3.95;2.20;;;16.20;99.90;;;;;;4740218;30;20059;-92
2023/06/13 02:29:35;;;;;;;3.67;2.15;;;16.20;99.90;;;;;;4733293;30;20055;-91
2023/06/13 02:32:01;;;;;;;3.60;2.30;;;16.20;99.90;;;;;;4749397;30;20117;-91
2023/06/13 02:34:27;;;;;;;3.58;1.98;;;16.20;99.90;;;;;;4757763;30;20039;-90
2023/06/13 02:36:53;;;;;;;4.30;2.17;;;16.10;99.90;;;;;;4722924;30;20055;-91
2023/06/13 02:39:18;;;;;;;4.28;2.30;;;16.10;99.90;;;;;;4735103;30;20043;-91
2023/06/13 02:41:44;;;;;;;4.28;2.10;;;16.10;99.90;;;;;;4739554;30;20086;-92
2023/06/13 02:44:10;;;;;;;8.15;2.22;;;16.10;99.90;;;;;;4739118;30;20048;-92
2023/06/13 02:46:35;;;;;;;6.00;2.50;;;16.10;99.90;;;;;;4752729;30;20059;-91
2023/06/13 02:49:02;;;;;;;5.72;1.92;;;16.10;99.90;;;;;;4740364;30;20495;-91
2023/06/13 02:51:27;;;;;;;3.30;1.92;;;16.10;99.90;;;;;;4739597;30;20063;-91
2023/06/13 02:53:53;;;;;;;3.70;2.00;;;16.10;99.90;;;;;;4738635;30;20182;-91
2023/06/13 02:56:19;;;;;;;3.17;2.00;;;16.10;99.80;;;;;;4780323;30;20051;-91
2023/06/13 02:58:45;;;;;;;3.15;2.33;;;16.10;99.90;;;;;;4721492;30;20355;-91
2023/06/13 03:01:12;;;;;;;3.47;1.90;;;16.00;99.70;;;;;;4761065;30;20151;-91
2023/06/13 03:03:37;;;;;;;4.28;2.03;;;16.10;99.70;;;;;;4754425;30;20051;-92
2023/06/13 03:06:03;;;;;;;4.03;2.00;;;16.00;99.50;;;;;;4763469;30;20050;-92
2023/06/13 03:08:29;;;;;;;3.80;2.30;;;15.90;99.80;;;;;;4750722;30;20416;-91
2023/06/13 03:10:55;;;;;;;3.42;1.98;;;16.00;99.80;;;;;;4768430;30;20552;-91
2023/06/13 03:13:21;;;;;;;2.95;2.25;;;15.90;99.70;;;;;;4755105;30;20044;-91
2023/06/13 03:15:47;;;;;;;2.63;1.90;;;15.80;99.30;;;;;;4740700;29;20496;-91
2023/06/13 03:18:14;;;;;;;4.75;2.10;;;15.80;98.70;;;;;;4745425;30;20048;-92
2023/06/13 03:20:45;;;;;;;4.55;2.45;;;15.90;98.60;;;;;;4728619;30;20047;-92
2023/06/13 03:23:12;;;;;;;2.55;2.13;;;15.80;98.80;;;;;;4746143;30;20047;-92
2023/06/13 03:25:40;;;;;;;2.13;1.80;;;15.80;98.10;;;;;;4733549;30;20063;-91
2023/06/13 03:28:06;;;;;;;2.60;2.20;;;15.80;97.90;;;;;;4760137;30;20051;-91
2023/06/13 03:30:33;;;;;;;4.05;2.10;;;15.80;97.70;;;;;;4730796;30;20043;-92
2023/06/13 03:32:59;;;;;;;6.47;2.30;;;15.80;97.10;;;;;;4772904;30;20096;-92
2023/06/13 03:35:24;;;;;;;3.92;2.00;;;15.80;97.10;;;;;;4759541;30;20536;-91
2023/06/13 03:37:50;;;;;;;4.80;2.40;;;15.80;97.20;;;;;;4744270;30;20508;-90
2023/06/13 03:40:16;;;;;;;3.08;2.10;;;15.80;96.90;;;;;;4768629;30;20047;-92
2023/06/13 03:42:41;;;;;;;4.75;2.53;;;15.80;96.60;;;;;;4738816;30;20455;-91
2023/06/13 03:45:07;;;;;;;3.78;2.38;;;15.70;96.60;;;;;;4756319;30;20043;-91
2023/06/13 03:47:33;;;;;;;5.20;2.47;;;15.70;96.60;;;;;;4720921;30;20168;-91
2023/06/13 03:49:59;;;;;;;4.53;2.40;;;15.70;96.60;;;;;;4775234;30;20043;-90
2023/06/13 03:52:25;;;;;;;4.68;2.58;;;15.70;96.90;;;;;;4742207;30;20051;-91
2023/06/13 03:54:51;;;;;;;3.97;2.10;;;15.60;97.40;;;;;;4756536;30;20380;-91
2023/06/13 03:57:17;;;;;;;2.83;1.90;;;15.60;97.40;;;;;;4723080;30;20039;-91
2023/06/13 03:59:43;;;;;;;3.85;2.60;;;15.60;97.80;;;;;;4731464;30;20100;-92
2023/06/13 04:02:13;;;;;;;4.45;2.40;;;15.60;98.30;;;;;;4756605;30;20039;-92
2023/06/13 04:04:44;;;;;;;2.97;2.25;;;15.60;98.70;;;;;;4763904;30;20043;-93
2023/06/13 04:07:10;;;;;;;5.03;2.20;;;15.60;98.50;;;;;;4761664;30;20108;-92
2023/06/13 04:09:36;;;;;;;4.00;2.10;;;15.70;99.20;;;;;;4730201;30;20454;-92
2023/06/13 04:12:02;;;;;;;3.28;2.35;;;15.60;99.20;;;;;;4762062;30;20035;-92
2023/06/13 04:14:28;;;;;;;2.75;2.22;;;15.70;99.80;;;;;;4756818;30;20035;-92
2023/06/13 04:16:54;;;;;;;3.83;1.90;;;15.70;99.80;;;;;;4750912;30;20089;-93
2023/06/13 04:19:20;;;;;;;4.38;2.00;;;15.80;99.90;;;;;;4763109;30;20047;-92
2023/06/13 04:21:47;;;;;;;2.42;1.95;;;15.80;99.90;;;;;;4759263;30;20054;-92
2023/06/13 04:24:14;;;;;;;3.67;2.17;;;15.80;99.90;;;;;;4763432;30;20143;-91
2023/06/13 04:26:41;;;;;;;;;;;15.80;99.90;;;;;;4752504;30;20147;-94
2023/06/13 04:29:08;;;;;;;2.50;2.08;;;15.90;99.90;;;;;;4755978;30;19925;-92
2023/06/13 04:31:36;;;;;;;3.40;2.35;;;15.90;99.90;;;;;;4742621;30;20043;-92
2023/06/13 04:34:07;;;;;;;3.58;2.50;;;16.00;99.90;;;;;;4774748;30;20076;-92
2023/06/13 04:36:35;;;;;;;3.13;2.10;;;16.10;99.90;;;;;;4772875;30;20054;-90
2023/06/13 04:39:04;;;;;;;3.42;2.38;;;16.10;99.90;;;;;;4755861;30;20054;-90
2023/06/13 04:41:34;;;;;;;4.63;2.38;;;16.10;99.90;;;;;;4764350;30;20093;-89
2023/06/13 04:44:10;;;;;;;2.55;2.08;;;16.20;99.90;;;;;;4760641;30;20062;-88
2023/06/13 04:46:40;;;;;;;2.38;2.13;;;16.10;99.90;;;;;;4739137;30;20055;-89
2023/06/13 04:49:06;;;;;;;3.05;2.38;;;16.20;99.90;;;;;;4765220;30;20056;-90
2023/06/13 04:51:33;;;;;;;3.43;2.07;;;16.30;99.90;;;;;;4712408;30;20032;-89
2023/06/13 04:54:00;;;;;;;7.60;2.33;;;16.30;99.90;;;;;;4738983;30;20048;-89
2023/06/13 04:56:26;;;;;;;;;;;16.40;99.90;;;;;;4757652;30;20473;-89
2023/06/13 04:58:55;;;;;;;3.70;2.08;;;16.50;99.90;;;;;;4765443;30;20405;-88
2023/06/13 05:01:26;;;;;;;3.20;2.25;;;16.50;99.90;;;;;;4766586;29;20028;-89
2023/06/13 05:03:55;;;;;;;2.63;2.00;;;16.60;99.90;;;;;;4778011;29;20137;-90
2023/06/13 05:06:21;;;;;;;3.22;2.17;;;16.70;99.90;;;;;;4748485;29;20051;-91
2023/06/13 05:08:47;;;;;;;4.13;2.00;;;16.70;99.60;;;;;;4758735;29;20408;-86
2023/06/13 05:11:13;;;;;;;5.53;1.90;;;16.90;98.50;;;;;;4784441;30;20113;-90
2023/06/13 05:13:39;;;;;;;4.05;1.85;;;17.00;96.20;;;;;;4773538;30;20096;-90
2023/06/13 05:16:05;;;;;;;2.78;1.70;;;17.10;94.30;;;;;;4755900;30;20087;-90
2023/06/13 05:18:31;;;;;;;4.27;1.87;;;17.30;92.10;;;;;;4764424;30;20055;-86
2023/06/13 05:20:58;;;;;;;2.58;1.70;;;17.40;90.50;;;;;;4755071;30;20561;-89
2023/06/13 05:23:24;;;;;;;3.13;1.70;;;17.50;88.20;;;;;;4733897;30;20081;-92
2023/06/13 05:25:50;;;;;;;2.70;1.67;;;17.60;86.60;;;;;;4742967;30;20063;-90
2023/06/13 05:28:16;;;;;;;2.90;1.60;;;17.70;85.30;;;;;;4755739;30;20140;-90
2023/06/13 05:30:42;;;;;;;1.85;1.30;;;17.80;84.80;;;;;;4740877;30;20043;-91
2023/06/13 05:33:08;;;;;;;2.20;1.53;;;17.90;84.90;;;;;;4714870;30;20046;-88
2023/06/13 05:35:35;;;;;;;2.63;1.58;;;18.00;84.80;;;;;;4725214;30;20040;-89
2023/06/13 05:38:03;;;;;;;2.55;1.60;;;18.10;84.80;;;;;;4751794;30;20071;-89
2023/06/13 05:40:29;;;;;;;2.45;1.40;;;17.80;84.30;;;;;;4749599;30;20083;-89
2023/06/13 05:42:58;;;;;;;3.47;1.40;;;18.70;84.80;;;;;;4756056;30;20075;-90
2023/06/13 05:45:23;;;;;;;4.72;1.75;;;18.40;85.70;;;;;;4725799;30;20048;-91
2023/06/13 05:47:50;;;;;;;6.60;1.73;;;18.50;86.80;;;;;;4740685;30;20036;-88
2023/06/13 05:50:15;;;;;;;8.43;1.90;;;18.70;88.30;;;;;;4740432;30;20040;-88
2023/06/13 05:52:42;;;;;;;3.13;1.30;;;19.30;89.30;;;;;;4752698;30;20048;-88
2023/06/13 05:55:07;;;;;;;3.47;1.60;;;20.30;86.40;;;;;;4739166;30;20048;-88
2023/06/13 05:57:40;;;;;;;2.75;1.65;;;21.20;82.80;;;;;;4749889;30;20432;-86
2023/06/13 06:00:14;;;;;;;6.60;1.70;;;21.90;74.10;;;;;;4762333;30;20116;-85
2023/06/13 06:02:44;;;;;;;2.85;1.70;;;22.40;71.30;;;;;;4751192;30;20098;-84
2023/06/13 06:05:13;;;;;;;2.03;1.42;;;22.10;70.50;;;;;;4770735;30;20048;-86
2023/06/13 06:07:43;;;;;;;2.55;1.20;;;21.60;68.90;;;;;;4746291;30;20040;-86
2023/06/13 06:10:13;;;;;;;3.25;1.45;;;21.30;68.80;;;;;;4771677;30;20043;-87
2023/06/13 06:12:39;;;;;;;3.58;1.23;;;21.80;70.00;;;;;;4782890;29;20158;-86
2023/06/13 06:15:06;;;;;;;2.70;1.40;;;22.10;70.00;;;;;;4763090;29;20028;-86
2023/06/13 06:17:31;;;;;;;3.80;1.23;;;22.20;68.30;;;;;;4791271;29;20035;-86
2023/06/13 06:19:57;;;;;;;2.92;1.52;;;22.50;67.20;;;;;;4773290;29;20079;-87
2023/06/13 06:22:23;;;;;;;6.63;1.20;;;22.70;66.10;;;;;;4765804;29;20050;-86
2023/06/13 06:24:49;;;;;;;1.33;1.05;;;22.70;66.00;;;;;;4759960;29;20625;-86
2023/06/13 06:27:15;;;;;;;5.18;1.23;;;22.40;62.90;;;;;;4738530;30;20056;-87
2023/06/13 06:29:43;;;;;;;3.83;1.20;;;22.10;63.60;;;;;;4747676;30;20043;-85
2023/06/13 06:32:10;;;;;;;1.50;0.90;;;21.80;63.80;;;;;;4743653;30;20047;-87
2023/06/13 06:34:36;;;;;;;2.50;1.00;;;21.60;63.50;;;;;;4777011;30;20113;-86
2023/06/13 06:37:03;;;;;;;1.75;1.23;;;21.40;62.80;;;;;;4735674;30;20043;-86
2023/06/13 06:39:30;;;;;;;1.45;1.05;;;21.40;62.30;;;;;;4752310;30;20063;-87
2023/06/13 06:41:55;;;;;;;2.33;1.00;;;21.30;61.90;;;;;;4757748;30;20055;-86
2023/06/13 06:44:21;;;;;;;2.03;1.13;;;21.30;61.70;;;;;;4762364;30;20496;-86
2023/06/13 06:46:47;;;;;;;2.72;1.10;;;21.30;61.90;;;;;;4727337;30;20055;-89
2023/06/13 06:49:13;;;;;;;1.63;1.20;;;21.40;61.30;;;;;;4752819;30;20052;-84
2023/06/13 06:51:38;;;;;;;3.25;1.23;;;21.50;61.80;;;;;;4748020;30;20044;-86
2023/06/13 06:54:04;;;;;;;4.35;1.35;;;21.80;62.40;;;;;;4747956;30;20040;-88
2023/06/13 06:56:31;;;;;;;3.70;1.27;;;22.50;62.20;;;;;;4754566;30;20067;-94
2023/06/13 06:58:59;;;;;;;2.83;1.30;;;23.60;59.60;;;;;;4746533;30;20113;-93
2023/06/13 07:01:25;;;;;;;3.60;1.23;;;23.80;60.00;;;;;;4734088;30;20051;-94
2023/06/13 07:03:51;;;;;;;2.92;1.27;;;24.40;59.10;;;;;;4767830;30;20562;-92
2023/06/13 07:06:18;;;;;;;2.40;1.10;;;24.90;58.20;;;;;;4748339;30;20044;-94
2023/06/13 07:08:44;;;;;;;8.75;1.10;;;25.20;57.30;;;;;;4754323;30;20174;-91
2023/06/13 07:11:10;;;;;;;2.80;1.20;;;25.50;57.00;;;;;;4764890;30;20520;-93
2023/06/13 07:13:36;;;;;;;1.63;1.20;;;26.10;57.00;;;;;;4742550;30;20101;-93
2023/06/13 07:16:01;;;;;;;1.53;1.00;;;26.60;56.80;;;;;;4756086;30;20676;-92
2023/06/13 07:18:29;;;;;;;2.97;1.17;;;27.20;55.90;;;;;;4740146;30;20854;-94
2023/06/13 07:20:56;;;;;;;3.65;1.27;;;27.70;56.10;;;;;;4753018;30;20048;-93
2023/06/13 07:23:21;;;;;;;2.58;1.10;;;28.00;55.10;;;;;;4756634;30;20044;-94
2023/06/13 07:25:47;;;;;;;2.60;1.37;;;27.90;53.90;;;;;;4754449;30;20055;-93
2023/06/13 07:28:13;;;;;;;1.55;1.30;;;27.60;53.20;;;;;;4745986;30;20067;-93
2023/06/13 07:30:39;;;;;;;1.70;1.00;;;27.30;53.40;;;;;;4779075;29;20083;-92
2023/06/13 07:33:05;;;;;;;2.40;1.27;;;27.70;54.60;;;;;;4762518;29;20109;-93
2023/06/13 07:35:32;;;;;;;2.30;1.33;;;28.10;54.90;;;;;;4769500;29;20114;-94
2023/06/13 07:37:58;;;;;;;1.80;1.27;;;28.10;53.90;;;;;;4775313;29;20032;-94
2023/06/13 07:40:24;;;;;;;2.47;1.40;;;28.40;53.90;;;;;;4773539;29;20036;-93
2023/06/13 07:42:50;;;;;;;3.30;1.20;;;28.60;53.80;;;;;;4763790;29;20044;-92
2023/06/13 07:45:17;;;;;;;2.17;1.30;;;28.40;53.00;;;;;;4763268;30;20083;-94
2023/06/13 07:47:43;;;;;;;3.13;1.30;;;28.30;53.30;;;;;;4751213;30;20043;-93
2023/06/13 07:50:09;;;;;;;2.10;1.38;;;28.20;52.90;;;;;;4754696;30;20054;-94
2023/06/13 07:52:43;;;;;;;1.83;1.43;;;28.30;53.40;;;;;;4754776;30;20214;-94
2023/06/13 07:55:09;;;;;;;1.42;1.02;;;28.20;52.00;;;;;;4764993;30;20469;-94
2023/06/13 07:57:35;;;;;;;2.47;1.17;;;28.30;52.90;;;;;;4753656;30;20055;-95
2023/06/13 08:00:06;;;;;;;1.77;1.08;;;28.70;53.60;;;;;;4739388;30;20115;-94
2023/06/13 08:02:35;;;;;;;6.07;1.70;;;29.30;52.80;;;;;;4761328;30;20031;-94
2023/06/13 08:05:02;;;;;;;1.65;1.25;;;29.20;52.30;;;;;;4746765;30;20122;-94
2023/06/13 08:07:29;;;;;;;5.85;1.60;;;28.90;51.60;;;;;;4760127;30;20043;-94
2023/06/13 08:09:54;;;;;;;2.25;1.20;;;28.80;51.80;;;;;;4750438;30;20558;-93
2023/06/13 08:12:21;;;;;;;2.08;1.00;;;28.60;52.10;;;;;;4746721;30;20044;-93
2023/06/13 08:14:46;;;;;;;1.92;1.30;;;28.60;52.70;;;;;;4730191;30;20126;-94
2023/06/13 08:17:12;;;;;;;2.97;1.30;;;28.30;53.20;;;;;;4734330;30;20588;-92
2023/06/13 08:19:38;;;;;;;1.60;1.00;;;28.40;53.50;;;;;;4770020;30;20043;-95
2023/06/13 08:22:04;;;;;;;3.95;1.48;;;28.10;53.20;;;;;;4745667;30;20131;-93
2023/06/13 08:24:30;;;;;;;1.42;1.20;;;27.90;53.00;;;;;;4722174;30;20056;-93
2023/06/13 08:26:57;;;;;;;3.47;1.30;;;27.50;52.40;;;;;;4720978;30;20052;-93
2023/06/13 08:29:28;;;;;;;1.60;1.10;;;27.50;52.60;;;;;;4762186;30;20051;-94
2023/06/13 08:31:54;;;;;;;3.67;1.48;;;27.40;52.20;;;;;;4750954;30;20055;-90
2023/06/13 08:34:20;;;;;;;3.05;1.15;;;27.10;52.10;;;;;;4743499;30;20388;-91
2023/06/13 08:36:46;;;;;;;2.30;1.10;;;26.70;52.50;;;;;;4747443;30;20108;-93
2023/06/13 08:39:12;;;;;;;2.08;1.10;;;26.50;53.40;;;;;;4744534;30;20047;-95
2023/06/13 08:41:40;;;;;;;3.28;1.40;;;26.60;53.30;;;;;;4762428;30;20550;-94
2023/06/13 08:44:07;;;;;;;2.05;1.20;;;26.70;53.60;;;;;;4766417;30;20051;-93
2023/06/13 08:46:34;;;;;;;3.72;1.20;;;26.80;53.50;;;;;;4737943;30;20047;-94
2023/06/13 08:49:05;;;;;;;1.67;1.17;;;27.10;53.60;;;;;;4753683;30;20043;-96
2023/06/13 08:51:32;;;;;;;2.33;1.60;;;27.40;52.80;;;;;;4773053;29;20408;-92
2023/06/13 08:54:08;;;;;;;3.65;1.13;;;27.60;52.20;;;;;;4767647;30;20602;-92
2023/06/13 08:56:45;;;;;;;7.10;1.33;;;27.60;50.70;;;;;;4782003;29;20044;-93
2023/06/13 08:59:18;;;;;;;3.65;1.75;;;27.70;49.60;;;;;;4776241;29;20064;-93
2023/06/13 09:01:45;;;;;;;3.40;1.30;;;27.80;50.10;;;;;;4781234;29;20032;-93
2023/06/13 09:04:12;;;;;;;3.35;1.63;;;27.80;50.10;;;;;;4776879;29;20103;-94
2023/06/13 09:06:58;;;;;;;3.00;1.42;;;27.90;50.70;;;;;;4773104;29;20074;-94
2023/06/13 09:09:25;;;;;;;1.35;0.95;;;28.00;50.90;;;;;;4752815;29;20044;-94
2023/06/13 09:11:52;;;;;;;1.85;1.50;;;28.10;51.80;;;;;;4757303;30;20040;-94
2023/06/13 09:14:19;;;;;;;2.58;1.38;;;28.20;52.60;;;;;;4749498;30;20078;-95
2023/06/13 09:16:58;;;;;;;3.55;1.50;;;28.30;52.00;;;;;;4758978;30;20636;-94
2023/06/13 09:19:24;;;;;;;2.58;1.20;;;28.30;51.90;;;;;;4744795;30;20788;-96
2023/06/13 09:21:56;;;;;;;2.80;1.30;;;28.40;52.30;;;;;;4757037;30;20051;-95
2023/06/13 09:24:23;;;;;;;2.83;1.30;;;28.60;53.30;;;;;;4758925;30;20059;-94
2023/06/13 09:26:50;;;;;;;1.83;1.35;;;28.70;52.90;;;;;;4761763;30;20060;-94
2023/06/13 09:29:16;;;;;;;5.97;1.30;;;28.70;53.20;;;;;;4733814;30;20134;-93
2023/06/13 09:31:49;;;;;;;3.83;1.35;;;28.60;53.20;;;;;;4754513;30;20044;-95
2023/06/13 09:34:43;;;;;;;;;;;;;;;;;;;;;
2023/06/13 09:37:11;;;;;;;4.70;1.40;;;28.50;53.00;;;;;;4757020;30;20668;-96
2023/06/13 09:39:50;;;;;;;1.95;1.38;;;28.40;53.40;;;;;;4767121;30;20127;-92
2023/06/13 09:42:42;;;;;;;2.75;1.30;;;28.40;53.60;;;;;;4765517;30;20059;-93
2023/06/13 09:45:16;;;;;;;1.83;1.33;;;28.40;52.20;;;;;;4749575;30;20109;-95
2023/06/13 09:47:51;;;;;;;2.25;1.35;;;28.40;52.60;;;;;;4738817;30;20528;-94
2023/06/13 09:51:09;;;;;;;2.38;1.30;;;28.40;53.50;;;;;;4722450;30;20111;-94
2023/06/13 09:53:40;;;;;;;2.05;1.05;;;28.30;53.30;;;;;;4724620;30;20136;-95
2023/06/13 10:00:16;;;;;;;1.60;1.20;;;28.40;53.90;;;;;;4729867;30;20082;-93
2023/06/13 10:03:02;;;;;;;2.78;1.23;;;28.40;53.30;;;;;;4755238;30;20511;-94
2023/06/13 10:05:28;;;;;;;3.15;1.10;;;28.30;53.50;;;;;;4753610;30;20056;-94
2023/06/13 10:08:02;;;;;;;1.20;1.10;;;28.30;53.70;;;;;;4758682;30;20040;-94
2023/06/13 10:10:28;;;;;;;2.88;1.23;;;28.30;53.80;;;;;;4755574;30;20123;-93
2023/06/13 10:13:05;;;;;;;3.58;1.27;;;28.30;54.00;;;;;;4753016;30;20075;-93
2023/06/13 10:15:39;;;;;;;2.92;1.45;;;28.20;54.00;;;;;;4764774;30;20481;-96
2023/06/13 10:18:10;;;;;;;2.15;1.45;;;28.20;54.60;;;;;;4760749;30;20164;-94
2023/06/13 10:20:41;;;;;;;1.60;0.90;;;28.30;54.60;;;;;;4782501;30;20185;-94
2023/06/13 10:23:13;;;;;;;2.25;0.90;;;28.30;54.70;;;;;;4766156;30;20043;-94
2023/06/13 10:25:45;;;;;;;3.38;1.40;;;28.30;53.90;;;;;;4759750;30;20051;-94
2023/06/13 10:28:50;;;;;;;3.25;1.38;;;28.30;53.50;;;;;;4751654;30;20427;-94
2023/06/13 10:31:53;;;;;;;2.28;1.38;;;28.30;52.10;;;;;;4751089;30;20108;-94
2023/06/13 10:34:34;;;;;;;4.35;0.93;;;28.20;53.80;;;;;;4738181;30;20056;-94
2023/06/13 10:37:25;;;;;;;2.47;1.30;;;28.20;53.40;;;;;;4759581;30;20139;-95
2023/06/13 10:40:13;;;;;;;2.28;1.42;;;28.20;53.80;;;;;;4752441;30;20051;-94
2023/06/13 10:43:11;;;;;;;;;;;28.10;54.30;;;;;;4749829;30;20052;-93
2023/06/13 10:45:48;;;;;;;2.17;1.17;;;28.00;54.90;;;;;;4761473;30;19925;-95
2023/06/13 10:48:51;;;;;;;3.22;1.30;;;28.00;54.60;;;;;;4754890;30;20052;-94
2023/06/13 10:55:40;;;;;;;2.15;1.27;;;28.00;56.80;;;;;;4780953;29;20405;-96
2023/06/13 10:58:49;;;;;;;5.38;1.05;;;28.00;55.50;;;;;;4738441;30;20467;-95
2023/06/13 11:01:35;;;;;;;2.80;0.85;;;28.00;56.30;;;;;;4749560;30;20051;-91
2023/06/13 11:04:14;;;;;;;1.20;0.85;;;27.90;55.30;;;;;;4740124;30;20036;-93
2023/06/13 11:06:42;;;;;;;2.05;1.02;;;27.90;56.00;;;;;;4738193;30;20060;-96
2023/06/13 11:09:54;;;;;;;2.88;0.85;;;27.90;55.90;;;;;;4750969;30;20060;-95
2023/06/13 11:13:12;;;;;;;2.38;1.00;;;28.00;56.50;;;;;;4773398;30;20055;-94
2023/06/13 11:15:45;;;;;;;2.03;1.00;;;28.00;55.00;;;;;;4698646;30;20116;-94
2023/06/13 11:18:13;;;;;;;2.15;0.85;;;27.90;54.70;;;;;;4699772;30;20045;-94
2023/06/13 11:20:59;;;;;;;2.25;1.00;;;27.70;55.20;;;;;;4750962;30;20048;-94
2023/06/13 11:23:38;;;;;;;3.20;1.05;;;27.60;55.90;;;;;;4754998;30;20130;-93
2023/06/13 11:26:05;;;;;;;4.00;1.00;;;27.40;55.70;;;;;;4765386;29;20408;-92
2023/06/13 11:28:40;;;;;;;1.35;0.88;;;27.30;56.40;;;;;;4743864;30;20084;-95
2023/06/13 11:31:09;;;;;;;2.08;0.88;;;27.30;56.90;;;;;;4753272;30;20044;-95
2023/06/13 11:37:29;;;;;;;2.55;1.10;;;27.20;55.30;;;;;;4756537;30;20185;-94
2023/06/13 11:39:56;;;;;;;2.65;0.80;;;27.10;57.60;;;;;;4770871;30;20059;-94
2023/06/13 11:42:23;;;;;;;2.17;1.02;;;27.00;57.40;;;;;;4748235;30;20140;-94
2023/06/13 11:44:50;;;;;;;2.90;1.10;;;27.10;56.70;;;;;;4754134;30;20051;-94
2023/06/13 11:47:16;;;;;;;1.58;0.93;;;27.20;56.60;;;;;;4746907;30;20097;-94
2023/06/13 11:49:54;;;;;;;1.10;0.80;;;27.20;56.00;;;;;;4743230;30;20044;-94
2023/06/13 11:52:23;;;;;;;1.67;0.88;;;27.40;56.10;;;;;;4752089;30;20150;-94
2023/06/13 11:54:50;;;;;;;2.30;1.00;;;27.40;55.30;;;;;;4786984;29;20056;-92
2023/06/13 11:57:20;;;;;;;;;;;27.40;55.20;;;;;;4757320;30;20070;-94
2023/06/13 11:59:55;;;;;;;1.05;0.70;;;27.30;56.70;;;;;;4750287;30;19932;-93
2023/06/13 12:02:43;;;;;;;2.40;0.88;;;27.40;55.30;;;;;;4755351;30;20509;-94
2023/06/13 12:05:10;;;;;;;1.50;0.95;;;27.30;55.20;;;;;;4765310;30;20047;-93
2023/06/13 12:07:36;;;;;;;2.85;1.00;;;27.20;54.80;;;;;;4737960;30;20214;-93
2023/06/13 12:10:02;;;;;;;4.33;1.00;;;27.20;54.80;;;;;;4734761;30;20126;-90
2023/06/13 12:12:28;;;;;;;;;;;27.20;55.30;;;;;;4762533;30;20481;-95
2023/06/13 12:14:55;;;;;;;1.35;0.85;;;27.10;55.20;;;;;;4747195;30;20267;-92
2023/06/13 12:17:21;;;;;;;1.95;0.88;;;27.00;55.60;;;;;;4742403;30;20130;-92
2023/06/13 12:19:47;;;;;;;2.28;0.88;;;26.90;55.40;;;;;;4743201;30;20118;-94
2023/06/13 12:22:15;;;;;;;1.40;0.70;;;26.80;55.30;;;;;;4754922;30;20059;-93
2023/06/13 12:24:42;;;;;;;2.22;0.95;;;26.80;55.70;;;;;;4751169;30;20072;-92
2023/06/13 12:27:11;;;;;;;6.40;1.25;;;26.60;55.30;;;;;;4744778;30;20035;-92
2023/06/13 12:29:39;;;;;;;2.00;0.80;;;26.70;56.30;;;;;;4756805;30;20043;-94
2023/06/13 12:32:06;;;;;;;3.55;0.70;;;26.60;55.60;;;;;;4758079;30;20130;-94
2023/06/13 12:34:36;;;;;;;3.28;0.95;;;26.60;55.60;;;;;;4727213;30;20463;-92
2023/06/13 12:37:04;;;;;;;3.00;0.93;;;26.50;55.30;;;;;;4769695;30;20073;-94
2023/06/13 12:39:32;;;;;;;1.58;1.17;;;26.40;55.50;;;;;;4720714;30;20048;-96
2023/06/13 12:42:10;;;;;;;1.83;0.70;;;26.30;56.10;;;;;;4756310;30;20055;-95
2023/06/13 12:44:36;;;;;;;4.97;1.30;;;26.20;55.40;;;;;;4742424;30;20048;-94
2023/06/13 12:47:03;;;;;;;4.97;1.00;;;26.10;55.60;;;;;;4745742;30;20052;-95
2023/06/13 12:49:36;;;;;;;2.58;0.80;;;26.10;56.30;;;;;;4747754;30;20115;-93
2023/06/13 12:52:06;;;;;;;1.83;1.00;;;26.00;56.30;;;;;;4750355;30;20055;-94
2023/06/13 12:54:40;;;;;;;1.88;1.00;;;25.90;56.40;;;;;;4757586;30;20707;-92
2023/06/13 12:57:33;;;;;;;4.70;1.00;;;25.90;57.20;;;;;;4721653;30;20113;-92
2023/06/13 13:00:10;;;;;;;1.35;0.73;;;25.90;58.20;;;;;;4769018;29;20090;-92
2023/06/13 13:03:30;;;;;;;7.05;1.13;;;25.70;57.90;;;;;;4757126;30;20051;-92
2023/06/13 13:06:00;;;;;;;2.80;1.13;;;25.50;58.40;;;;;;4752855;30;20051;-91
2023/06/13 13:08:26;;;;;;;4.03;1.10;;;25.50;58.40;;;;;;4742069;30;20049;-91
2023/06/13 13:10:53;;;;;;;1.83;1.05;;;25.50;58.60;;;;;;4755790;30;20500;-92
2023/06/13 13:13:19;;;;;;;2.50;1.40;;;25.40;57.80;;;;;;4746218;30;20043;-91
2023/06/13 13:15:46;;;;;;;1.65;1.08;;;25.30;57.60;;;;;;4738002;30;20052;-90
2023/06/13 13:18:12;;;;;;;4.03;1.42;;;25.30;57.90;;;;;;4753028;30;20048;-91